createdAt,value
2022-09-17T00:01:34.250Z,1.50
2022-09-17T00:04:06.972Z,1.48
2022-09-17T00:06:41.324Z,1.65
2022-09-17T00:09:15.949Z,1.80
2022-09-17T00:11:48.296Z,2.67
2022-09-17T00:14:25.054Z,1.50
2022-09-17T00:17:01.932Z,1.85
2022-09-17T00:19:36.059Z,1.40
2022-09-17T00:22:10.337Z,1.48
2022-09-17T00:24:44.382Z,1.20
2022-09-17T00:27:16.434Z,1.10
2022-09-17T00:29:54.121Z,1.10
2022-09-17T00:32:31.055Z,1.47
2022-09-17T00:35:03.398Z,1.30
2022-09-17T00:37:38.359Z,1.20
2022-09-17T00:40:16.123Z,1.13
2022-09-17T00:42:50.160Z,0.90
2022-09-17T00:45:27.588Z,0.90
2022-09-17T00:48:01.723Z,1.20
2022-09-17T00:50:36.988Z,1.35
2022-09-17T00:53:11.352Z,1.40
2022-09-17T00:55:46.883Z,1.20
2022-09-17T00:58:20.060Z,1.20
2022-09-17T01:00:57.026Z,1.25
2022-09-17T01:03:30.401Z,1.20
2022-09-17T01:06:09.027Z,1.20
2022-09-17T01:08:49.318Z,1.00
2022-09-17T01:11:34.402Z,0.70
2022-09-17T01:14:17.332Z,0.70
2022-09-17T01:16:58.345Z,0.88
2022-09-17T01:20:10.348Z,1.00
2022-09-17T01:22:48.467Z,0.95
2022-09-17T01:25:25.875Z,1.00
2022-09-17T01:28:29.479Z,1.00
2022-09-17T01:31:12.891Z,0.80
2022-09-17T01:33:46.651Z,0.80
2022-09-17T01:36:28.265Z,0.80
2022-09-17T01:39:05.455Z,0.77
2022-09-17T01:41:43.457Z,0.80
2022-09-17T01:44:29.271Z,1.23
2022-09-17T01:47:08.062Z,0.87
2022-09-17T01:49:42.288Z,1.00
2022-09-17T01:52:16.946Z,0.88
2022-09-17T01:54:50.809Z,0.82
2022-09-17T01:57:26.223Z,0.65
2022-09-17T02:00:00.078Z,0.85
2022-09-17T02:02:38.988Z,0.90
2022-09-17T02:05:13.358Z,1.00
2022-09-17T02:07:48.600Z,0.80
2022-09-17T02:10:22.328Z,0.77
2022-09-17T02:12:59.617Z,0.85
2022-09-17T02:15:34.246Z,0.90
2022-09-17T02:18:13.824Z,0.77
2022-09-17T02:20:48.317Z,1.00
2022-09-17T02:23:24.219Z,1.15
2022-09-17T02:26:00.702Z,1.10
2022-09-17T02:28:36.755Z,1.77
2022-09-17T02:33:44.524Z,0.80
2022-09-17T02:36:17.360Z,0.95
2022-09-17T02:38:51.243Z,1.00
2022-09-17T02:41:26.361Z,2.10
2022-09-17T02:44:12.445Z,0.80
2022-09-17T02:46:54.908Z,1.38
2022-09-17T02:49:40.632Z,1.00
2022-09-17T02:52:17.887Z,0.80
2022-09-17T02:54:55.072Z,1.40
2022-09-17T02:57:29.471Z,0.90
2022-09-17T03:00:07.679Z,0.80
2022-09-17T03:02:42.488Z,0.93
2022-09-17T03:05:21.838Z,0.97
2022-09-17T03:07:55.865Z,1.30
2022-09-17T03:10:31.459Z,0.90
2022-09-17T03:13:05.487Z,0.98
2022-09-17T03:15:42.302Z,1.00
2022-09-17T03:18:16.772Z,1.02
2022-09-17T03:20:56.032Z,1.10
2022-09-17T03:23:34.107Z,1.00
2022-09-17T03:26:08.764Z,1.40
2022-09-17T03:28:45.703Z,1.10
2022-09-17T03:31:21.308Z,1.17
2022-09-17T03:33:58.985Z,1.33
2022-09-17T03:36:39.633Z,0.90
2022-09-17T03:39:16.493Z,1.17
2022-09-17T03:41:55.563Z,0.90
2022-09-17T03:44:28.892Z,1.10
2022-09-17T03:47:01.956Z,1.10
2022-09-17T03:49:33.656Z,1.10
2022-09-17T03:52:10.556Z,1.02
2022-09-17T03:54:43.000Z,0.90
2022-09-17T03:57:17.155Z,1.10
2022-09-17T03:59:52.050Z,1.23
2022-09-17T04:02:27.825Z,1.10
2022-09-17T04:05:01.297Z,0.80
2022-09-17T04:07:41.721Z,1.55
2022-09-17T04:10:14.526Z,0.80
2022-09-17T04:12:50.817Z,0.95
2022-09-17T04:15:27.512Z,0.90
2022-09-17T04:18:01.885Z,0.60
2022-09-17T04:20:37.340Z,0.65
2022-09-17T04:23:14.543Z,0.70
2022-09-17T04:25:54.352Z,0.70
2022-09-17T04:28:27.707Z,1.13
2022-09-17T04:31:03.192Z,1.60
2022-09-17T04:33:37.823Z,0.93
2022-09-17T04:36:11.508Z,0.73
2022-09-17T04:38:51.374Z,1.05
2022-09-17T04:41:25.984Z,1.30
2022-09-17T04:44:01.337Z,1.00
2022-09-17T04:46:35.553Z,0.90
2022-09-17T04:49:10.694Z,1.65
2022-09-17T04:51:48.597Z,1.10
2022-09-17T04:54:25.923Z,1.20
2022-09-17T04:57:02.639Z,1.23
2022-09-17T04:59:36.814Z,2.55
2022-09-17T05:02:11.162Z,1.07
2022-09-17T05:04:46.747Z,1.30
2022-09-17T05:07:20.399Z,1.13
2022-09-17T05:09:58.124Z,1.52
2022-09-17T05:12:34.549Z,0.98
2022-09-17T05:15:15.426Z,1.10
2022-09-17T05:17:49.979Z,1.25
2022-09-17T05:20:23.343Z,1.40
2022-09-17T05:22:56.556Z,1.60
2022-09-17T05:25:33.144Z,1.70
2022-09-17T05:28:09.277Z,1.67
2022-09-17T05:30:44.429Z,1.70
2022-09-17T05:33:19.849Z,2.13
2022-09-17T05:35:56.712Z,1.27
2022-09-17T05:38:31.941Z,1.90
2022-09-17T05:41:13.784Z,1.83
2022-09-17T05:43:47.658Z,2.80
2022-09-17T05:46:22.771Z,3.65
2022-09-17T05:49:03.121Z,2.00
2022-09-17T05:51:38.573Z,1.77
2022-09-17T05:54:15.733Z,1.77
2022-09-17T05:56:52.247Z,1.60
2022-09-17T05:59:28.629Z,1.90
2022-09-17T06:02:02.502Z,1.55
2022-09-17T06:04:41.792Z,1.90
2022-09-17T06:07:16.437Z,1.95
2022-09-17T06:09:51.035Z,1.80
2022-09-17T06:12:32.851Z,1.60
2022-09-17T06:15:10.515Z,2.33
2022-09-17T06:17:53.925Z,2.67
2022-09-17T06:20:28.642Z,1.65
2022-09-17T06:23:05.598Z,2.05
2022-09-17T06:25:55.885Z,2.55
2022-09-17T06:28:31.988Z,2.40
2022-09-17T06:31:07.958Z,2.10
2022-09-17T06:36:21.410Z,1.80
2022-09-17T06:38:58.640Z,1.90
2022-09-17T06:41:51.360Z,1.77
2022-09-17T06:44:42.571Z,1.92
2022-09-17T06:47:20.167Z,1.90
2022-09-17T06:50:00.635Z,1.90
2022-09-17T06:52:36.515Z,2.10
2022-09-17T06:55:16.173Z,1.98
2022-09-17T06:57:52.734Z,2.60
2022-09-17T07:00:32.411Z,1.67
2022-09-17T07:03:07.229Z,1.95
2022-09-17T07:05:46.983Z,1.70
2022-09-17T07:08:23.393Z,2.00
2022-09-17T07:11:09.773Z,1.90
2022-09-17T07:13:44.595Z,1.70
2022-09-17T07:16:22.131Z,1.90
2022-09-17T07:18:59.706Z,1.73
2022-09-17T07:21:35.333Z,2.10
2022-09-17T07:24:12.174Z,1.95
2022-09-17T07:26:51.461Z,1.67
2022-09-17T07:29:27.756Z,2.78
2022-09-17T07:32:10.064Z,1.92
2022-09-17T07:34:46.023Z,1.60
2022-09-17T07:39:53.954Z,1.85
2022-09-17T07:42:34.372Z,2.70
2022-09-17T07:45:14.636Z,2.03
2022-09-17T07:47:55.377Z,1.80
2022-09-17T07:50:37.115Z,2.45
2022-09-17T07:53:13.547Z,2.13
2022-09-17T07:55:54.785Z,1.80
2022-09-17T07:58:33.072Z,1.93
2022-09-17T08:01:07.834Z,2.30
2022-09-17T08:03:47.185Z,2.15
2022-09-17T08:06:22.670Z,2.60
2022-09-17T08:08:58.828Z,2.00
2022-09-17T08:14:32.472Z,2.42
2022-09-17T08:17:08.438Z,2.57
2022-09-17T08:19:53.506Z,2.65
2022-09-17T08:22:26.802Z,2.70
2022-09-17T08:25:04.806Z,1.92
2022-09-17T08:27:42.404Z,1.95
2022-09-17T08:30:19.524Z,1.90
2022-09-17T08:32:54.757Z,2.08
2022-09-17T08:35:30.998Z,2.43
2022-09-17T08:38:06.196Z,2.30
2022-09-17T08:40:44.759Z,2.22
2022-09-17T08:43:17.904Z,2.57
2022-09-17T08:45:57.543Z,2.20
2022-09-17T08:48:35.292Z,3.37
2022-09-17T08:51:18.875Z,2.30
2022-09-17T08:53:57.032Z,2.25
2022-09-17T08:56:32.369Z,2.00
2022-09-17T08:59:12.299Z,2.37
2022-09-17T09:01:53.584Z,2.53
2022-09-17T09:04:42.424Z,2.55
2022-09-17T09:07:26.653Z,2.90
2022-09-17T09:10:07.293Z,3.00
2022-09-17T09:12:48.114Z,2.60
2022-09-17T09:15:36.483Z,2.45
2022-09-17T09:18:17.291Z,3.05
2022-09-17T09:20:55.963Z,2.95
2022-09-17T09:23:37.487Z,2.90
2022-09-17T09:26:16.868Z,2.97
2022-09-17T09:29:13.798Z,3.40
2022-09-17T09:34:26.081Z,3.37
2022-09-17T09:37:01.750Z,2.90
2022-09-17T09:39:43.773Z,3.30
2022-09-17T09:42:26.394Z,3.65
2022-09-17T09:45:05.128Z,3.78
2022-09-17T09:48:14.168Z,3.78
2022-09-17T09:51:06.144Z,4.17
2022-09-17T09:53:48.165Z,3.30
2022-09-17T09:56:59.018Z,4.40
2022-09-17T09:59:34.845Z,4.38
2022-09-17T10:02:11.312Z,4.30
2022-09-17T10:04:52.752Z,3.90
2022-09-17T10:07:28.523Z,3.60
2022-09-17T10:10:12.687Z,3.58
2022-09-17T10:12:49.703Z,3.53
2022-09-17T10:15:30.127Z,3.83
2022-09-17T10:18:18.811Z,3.05
2022-09-17T10:21:22.192Z,3.00
2022-09-17T10:23:57.699Z,3.60
2022-09-17T10:26:38.481Z,3.20
2022-09-17T10:29:18.821Z,3.70
2022-09-17T10:31:52.023Z,3.33
2022-09-17T10:34:26.289Z,2.95
2022-09-17T10:37:00.609Z,3.05
2022-09-17T10:39:38.853Z,7.03
2022-09-17T10:42:17.968Z,2.80
2022-09-17T10:44:57.747Z,2.92
2022-09-17T10:47:32.314Z,2.95
2022-09-17T10:50:08.645Z,2.37
2022-09-17T10:52:43.324Z,2.50
2022-09-17T10:55:24.328Z,2.43
2022-09-17T10:58:21.020Z,2.90
2022-09-17T11:01:03.682Z,2.00
2022-09-17T11:04:02.951Z,1.70
2022-09-17T11:07:09.751Z,2.20
2022-09-17T11:09:48.869Z,2.10
2022-09-17T11:12:45.330Z,1.90
2022-09-17T11:15:31.827Z,1.57
2022-09-17T11:18:18.257Z,1.40
2022-09-17T11:21:01.244Z,1.35
2022-09-17T11:23:47.886Z,1.33
2022-09-17T11:26:27.637Z,1.95
2022-09-17T11:29:06.251Z,1.80
2022-09-17T11:31:43.621Z,1.73
2022-09-17T11:34:48.298Z,1.55
2022-09-17T11:37:24.233Z,1.20
2022-09-17T11:42:34.106Z,1.00
2022-09-17T11:45:15.730Z,1.10
2022-09-17T11:48:00.495Z,1.17
2022-09-17T11:50:39.927Z,1.02
2022-09-17T11:53:19.155Z,1.50
2022-09-17T11:55:53.317Z,1.55
2022-09-17T11:58:35.735Z,1.20
2022-09-17T12:01:20.804Z,1.40
2022-09-17T12:03:55.293Z,1.70
2022-09-17T12:09:08.318Z,1.35
2022-09-17T12:11:45.079Z,1.70
2022-09-17T12:14:20.654Z,1.43
2022-09-17T12:16:54.493Z,0.82
2022-09-17T12:19:29.632Z,0.80
2022-09-17T12:22:09.649Z,1.55
2022-09-17T12:24:45.927Z,2.05
2022-09-17T12:27:21.525Z,1.67
2022-09-17T12:30:10.358Z,0.97
2022-09-17T12:33:08.512Z,0.80
2022-09-17T12:36:04.624Z,0.70
2022-09-17T12:39:02.065Z,0.82
2022-09-17T12:41:41.126Z,0.80
2022-09-17T12:44:28.558Z,1.20
2022-09-17T12:46:57.807Z,0.98
2022-09-17T12:49:51.833Z,0.80
2022-09-17T12:52:34.186Z,0.60
2022-09-17T12:55:17.808Z,0.95
2022-09-17T12:57:59.861Z,0.75
2022-09-17T13:00:33.918Z,2.00
2022-09-17T13:03:11.374Z,1.73
2022-09-17T13:05:55.543Z,1.63
2022-09-17T13:08:30.815Z,0.50
2022-09-17T13:11:12.888Z,0.50
2022-09-17T13:13:52.181Z,1.00
2022-09-17T13:16:28.768Z,0.80
2022-09-17T13:19:20.082Z,0.50
2022-09-17T13:22:00.985Z,0.70
2022-09-17T13:24:36.186Z,0.60
2022-09-17T13:27:10.949Z,0.40
2022-09-17T13:30:05.158Z,0.40
2022-09-17T13:32:47.330Z,0.50
2022-09-17T13:35:16.116Z,0.80
2022-09-17T13:37:49.239Z,0.50
2022-09-17T13:40:25.053Z,0.40
2022-09-17T13:45:37.272Z,0.93
2022-09-17T13:48:13.345Z,1.10
2022-09-17T13:50:48.537Z,1.30
2022-09-17T13:53:28.378Z,0.87
2022-09-17T13:56:06.092Z,1.10
2022-09-17T13:58:39.132Z,0.90
2022-09-17T14:01:17.825Z,1.23
2022-09-17T14:03:55.928Z,1.70
2022-09-17T14:06:54.418Z,0.60
2022-09-17T14:09:39.359Z,0.50
2022-09-17T14:12:48.954Z,0.60
2022-09-17T14:16:01.786Z,0.57
2022-09-17T14:18:49.573Z,0.30
2022-09-17T14:21:29.045Z,0.60
2022-09-17T14:24:04.733Z,0.65
2022-09-17T14:27:06.144Z,0.80
2022-09-17T14:29:49.310Z,1.00
2022-09-17T14:32:30.531Z,1.35
2022-09-17T14:35:19.934Z,6.57
2022-09-17T14:38:01.736Z,1.15
2022-09-17T14:40:43.348Z,1.40
2022-09-17T14:43:25.632Z,1.00
2022-09-17T14:46:02.054Z,1.30
2022-09-17T14:48:37.767Z,1.35
2022-09-17T14:51:36.175Z,1.67
2022-09-17T14:54:21.136Z,0.95
2022-09-17T14:59:30.858Z,1.30
2022-09-17T15:02:07.936Z,1.60
2022-09-17T15:04:47.404Z,0.75
2022-09-17T15:07:26.180Z,0.90
2022-09-17T15:10:09.786Z,0.80
2022-09-17T15:12:45.848Z,0.50
2022-09-17T15:15:57.546Z,0.80
2022-09-17T15:18:43.217Z,1.10
2022-09-17T15:21:24.512Z,0.90
2022-09-17T15:24:04.259Z,0.90
2022-09-17T15:26:40.870Z,0.57
2022-09-17T15:29:15.839Z,0.90
2022-09-17T15:31:49.141Z,0.93
2022-09-17T15:34:24.954Z,1.10
2022-09-17T15:37:07.854Z,1.40
2022-09-17T15:39:47.118Z,1.30
2022-09-17T15:42:27.617Z,0.90
2022-09-17T15:45:10.607Z,1.50
2022-09-17T15:48:10.477Z,1.40
2022-09-17T15:50:48.360Z,0.77
2022-09-17T15:53:26.378Z,37.28
2022-09-17T15:56:22.030Z,1.55
2022-09-17T15:58:57.648Z,0.70
2022-09-17T16:01:56.158Z,0.90
2022-09-17T16:04:30.646Z,1.00
2022-09-17T16:07:22.320Z,1.40
2022-09-17T16:09:59.469Z,1.83
2022-09-17T16:12:36.929Z,2.22
2022-09-17T16:15:11.696Z,3.43
2022-09-17T16:17:51.997Z,3.03
2022-09-17T16:20:27.766Z,2.28
2022-09-17T16:23:01.528Z,2.40
2022-09-17T16:25:37.239Z,2.60
2022-09-17T16:28:16.748Z,1.80
2022-09-17T16:30:55.149Z,1.90
2022-09-17T16:33:29.891Z,2.00
2022-09-17T16:36:05.066Z,1.70
2022-09-17T16:38:38.987Z,1.30
2022-09-17T16:41:17.870Z,1.90
2022-09-17T16:43:54.851Z,1.80
2022-09-17T16:46:32.457Z,2.17
2022-09-17T16:49:07.237Z,4.22
2022-09-17T16:51:42.339Z,2.00
2022-09-17T16:54:19.422Z,3.20
2022-09-17T16:56:56.000Z,2.60
2022-09-17T16:59:35.211Z,1.25
2022-09-17T17:02:11.383Z,1.10
2022-09-17T17:04:48.721Z,1.20
2022-09-17T17:07:23.656Z,1.30
2022-09-17T17:09:59.501Z,0.98
2022-09-17T17:12:35.763Z,2.10
2022-09-17T17:15:16.225Z,1.67
2022-09-17T17:17:52.717Z,1.70
2022-09-17T17:20:33.072Z,1.40
2022-09-17T17:23:06.002Z,1.00
2022-09-17T17:25:40.044Z,1.40
2022-09-17T17:28:16.096Z,1.40
2022-09-17T17:30:55.759Z,3.00
2022-09-17T17:33:35.819Z,5.20
2022-09-17T17:36:11.476Z,5.05
2022-09-17T17:38:53.382Z,4.33
2022-09-17T17:41:32.935Z,3.10
2022-09-17T17:44:07.799Z,23.45
2022-09-17T17:46:45.960Z,7.40
2022-09-17T17:49:20.816Z,10.63
2022-09-17T17:51:54.275Z,6.47
2022-09-17T17:54:29.483Z,8.60
2022-09-17T17:57:04.155Z,13.80
2022-09-17T17:59:39.063Z,14.35
2022-09-17T18:02:15.102Z,51.50
2022-09-17T18:04:48.332Z,30.95
2022-09-17T18:07:23.407Z,7.45
2022-09-17T18:09:58.190Z,5.18
2022-09-17T18:12:32.577Z,2.20
2022-09-17T18:15:07.731Z,1.92
2022-09-17T18:17:48.692Z,1.95
2022-09-17T18:20:23.492Z,3.25
2022-09-17T18:22:57.866Z,22.40
2022-09-17T18:25:32.792Z,46.28
2022-09-17T18:28:08.149Z,17.60
2022-09-17T18:30:43.899Z,43.60
2022-09-17T18:33:26.098Z,65.57
2022-09-17T18:36:03.871Z,61.90
2022-09-17T18:38:40.857Z,112.40
2022-09-17T18:41:15.193Z,21.98
2022-09-17T18:43:52.977Z,137.45
2022-09-17T18:46:30.601Z,83.07
2022-09-17T18:49:08.685Z,32.73
2022-09-17T18:51:45.519Z,26.42
2022-09-17T18:54:27.390Z,51.23
2022-09-17T18:56:57.942Z,19.03
2022-09-17T18:59:31.641Z,25.75
2022-09-17T19:02:07.077Z,13.40
2022-09-17T19:04:44.115Z,6.33
2022-09-17T19:07:21.653Z,25.00
2022-09-17T19:10:01.399Z,21.03
2022-09-17T19:12:36.561Z,6.87
2022-09-17T19:15:15.062Z,9.23
2022-09-17T19:17:48.660Z,6.80
2022-09-17T19:20:25.934Z,2.75
2022-09-17T19:22:58.707Z,3.70
2022-09-17T19:25:32.970Z,2.60
2022-09-17T19:28:05.826Z,2.50
2022-09-17T19:30:38.941Z,4.28
2022-09-17T19:33:16.486Z,4.00
2022-09-17T19:35:54.502Z,3.35
2022-09-17T19:38:29.692Z,3.30
2022-09-17T19:41:05.104Z,3.03
2022-09-17T19:43:44.045Z,3.22
2022-09-17T19:46:18.456Z,3.13
2022-09-17T19:48:53.708Z,2.88
2022-09-17T19:51:32.143Z,4.10
2022-09-17T19:54:10.576Z,4.00
2022-09-17T19:56:47.779Z,3.67
2022-09-17T19:59:24.439Z,4.90
2022-09-17T20:02:01.691Z,6.55
2022-09-17T20:04:37.009Z,4.30
2022-09-17T20:07:15.842Z,5.55
2022-09-17T20:09:51.108Z,4.45
2022-09-17T20:12:28.150Z,3.67
2022-09-17T20:15:02.513Z,3.37
2022-09-17T20:17:42.161Z,3.90
2022-09-17T20:20:18.075Z,3.15
2022-09-17T20:22:56.127Z,2.60
2022-09-17T20:25:33.999Z,3.38
2022-09-17T20:28:10.556Z,2.53
2022-09-17T20:30:49.463Z,2.90
2022-09-17T20:33:25.678Z,2.53
2022-09-17T20:39:10.803Z,2.50
2022-09-17T20:41:40.915Z,3.00
2022-09-17T20:44:18.008Z,3.50
2022-09-17T20:46:56.130Z,3.00
2022-09-17T20:49:32.335Z,2.60
2022-09-17T20:52:07.843Z,2.30
2022-09-17T20:54:44.997Z,3.45
2022-09-17T20:57:18.383Z,2.50
2022-09-17T21:00:17.029Z,2.83
2022-09-17T21:02:56.522Z,3.72
2022-09-17T21:05:33.958Z,3.25
2022-09-17T21:08:07.356Z,3.80
2022-09-17T21:10:50.559Z,2.90
2022-09-17T21:13:27.893Z,2.95
2022-09-17T21:16:03.627Z,2.30
2022-09-17T21:18:39.756Z,3.40
2022-09-17T21:21:14.346Z,3.05
2022-09-17T21:23:52.938Z,3.40
2022-09-17T21:26:29.196Z,3.10
2022-09-17T21:29:02.176Z,2.80
2022-09-17T21:31:37.174Z,2.63
2022-09-17T21:34:15.202Z,2.75
2022-09-17T21:36:52.177Z,3.07
2022-09-17T21:39:29.391Z,3.17
2022-09-17T21:42:08.623Z,4.07
2022-09-17T21:44:47.524Z,2.65
2022-09-17T21:47:22.681Z,3.10
2022-09-17T21:49:58.303Z,2.55
2022-09-17T21:52:34.662Z,2.63
2022-09-17T21:55:10.756Z,3.07
2022-09-17T22:00:23.554Z,1.95
2022-09-17T22:02:59.394Z,1.80
2022-09-17T22:05:36.177Z,3.00
2022-09-17T22:08:10.163Z,1.70
2022-09-17T22:10:45.625Z,2.77
2022-09-17T22:16:01.057Z,1.73
2022-09-17T22:18:34.764Z,2.50
2022-09-17T22:21:18.284Z,3.13
2022-09-17T22:23:55.545Z,2.35
2022-09-17T22:26:32.814Z,1.93
2022-09-17T22:29:11.726Z,2.45
2022-09-17T22:31:46.098Z,2.45
2022-09-17T22:34:21.398Z,2.67
2022-09-17T22:36:54.895Z,1.80
2022-09-17T22:39:28.528Z,1.92
2022-09-17T22:42:01.901Z,2.15
2022-09-17T22:44:36.306Z,3.03
2022-09-17T22:47:08.954Z,2.13
2022-09-17T22:49:41.670Z,2.20
2022-09-17T22:52:15.784Z,2.13
2022-09-17T22:54:49.381Z,1.90
2022-09-17T22:57:21.579Z,2.20
2022-09-17T22:59:56.627Z,1.88
2022-09-17T23:02:30.573Z,2.42
2022-09-17T23:05:02.381Z,1.90
2022-09-17T23:07:36.633Z,1.73
2022-09-17T23:10:12.279Z,1.38
2022-09-17T23:12:44.415Z,1.60
2022-09-17T23:15:26.617Z,1.73
2022-09-17T23:18:03.031Z,1.98
2022-09-17T23:20:35.592Z,2.35
2022-09-17T23:23:07.701Z,1.85
2022-09-17T23:25:42.226Z,2.22
2022-09-17T23:28:14.600Z,1.90
2022-09-17T23:30:51.560Z,1.40
2022-09-17T23:33:25.876Z,1.38
2022-09-17T23:35:59.519Z,2.00
2022-09-17T23:38:33.938Z,1.60
2022-09-17T23:41:17.181Z,1.50
2022-09-17T23:43:49.098Z,1.50
2022-09-17T23:46:25.438Z,1.60
2022-09-17T23:49:00.007Z,1.20
2022-09-17T23:51:33.661Z,1.50
2022-09-17T23:54:08.426Z,2.20
2022-09-17T23:56:42.559Z,1.90
2022-09-17T23:59:14.764Z,2.75
